createdAt,value
2023-02-09T00:02:19.110Z,93.00
2023-02-09T00:04:48.381Z,93.10
2023-02-09T00:07:16.308Z,93.30
2023-02-09T00:09:45.274Z,93.40
2023-02-09T00:12:30.418Z,93.40
2023-02-09T00:14:58.433Z,94.00
2023-02-09T00:17:26.329Z,93.00
2023-02-09T00:19:56.505Z,93.00
2023-02-09T00:22:24.536Z,92.20
2023-02-09T00:24:52.474Z,92.60
2023-02-09T00:27:20.578Z,92.50
2023-02-09T00:29:49.610Z,92.60
2023-02-09T00:32:17.637Z,92.90
2023-02-09T00:34:45.720Z,92.80
2023-02-09T00:37:15.004Z,92.60
2023-02-09T00:39:42.916Z,92.50
2023-02-09T00:42:11.617Z,92.70
2023-02-09T00:44:41.631Z,93.10
2023-02-09T00:47:10.257Z,93.10
2023-02-09T00:49:39.960Z,93.40
2023-02-09T00:52:09.938Z,93.30
2023-02-09T00:54:39.555Z,92.90
2023-02-09T00:57:07.573Z,93.10
2023-02-09T00:59:36.783Z,92.80
2023-02-09T01:02:04.828Z,92.60
2023-02-09T01:04:32.937Z,92.70
2023-02-09T01:07:01.222Z,92.80
2023-02-09T01:09:29.229Z,92.80
2023-02-09T01:11:58.696Z,92.90
2023-02-09T01:14:26.600Z,93.20
2023-02-09T01:16:54.707Z,93.10
2023-02-09T01:19:22.750Z,93.00
2023-02-09T01:21:50.702Z,92.80
2023-02-09T01:24:18.639Z,92.90
2023-02-09T01:26:46.535Z,93.20
2023-02-09T01:29:18.359Z,93.70
2023-02-09T01:31:46.940Z,93.10
2023-02-09T01:34:17.340Z,93.70
2023-02-09T01:36:45.897Z,93.80
2023-02-09T01:39:15.321Z,93.40
2023-02-09T01:41:43.872Z,93.40
2023-02-09T01:44:45.472Z,93.60
2023-02-09T01:47:19.477Z,93.50
2023-02-09T01:49:50.954Z,93.90
2023-02-09T01:52:22.493Z,93.50
2023-02-09T01:54:53.668Z,93.80
2023-02-09T01:57:25.816Z,93.40
2023-02-09T01:59:57.687Z,93.20
2023-02-09T02:02:27.265Z,93.20
2023-02-09T02:04:55.350Z,92.70
2023-02-09T02:07:29.890Z,92.80
2023-02-09T02:09:58.081Z,92.90
2023-02-09T02:12:27.051Z,93.50
2023-02-09T02:14:55.023Z,93.30
2023-02-09T02:17:36.649Z,93.50
2023-02-09T02:20:31.605Z,93.60
2023-02-09T02:23:10.172Z,93.80
2023-02-09T02:26:11.897Z,93.80
2023-02-09T02:28:51.254Z,93.30
2023-02-09T02:31:58.764Z,93.10
2023-02-09T02:34:35.967Z,93.50
2023-02-09T02:37:17.149Z,92.90
2023-02-09T02:39:53.625Z,92.80
2023-02-09T02:42:43.932Z,93.30
2023-02-09T02:45:17.349Z,93.30
2023-02-09T02:47:55.248Z,93.00
2023-02-09T02:50:29.132Z,93.20
2023-02-09T02:53:00.485Z,93.30
2023-02-09T02:55:32.196Z,93.70
2023-02-09T02:58:05.239Z,93.70
2023-02-09T03:00:37.725Z,93.30
2023-02-09T03:03:12.948Z,94.00
2023-02-09T03:05:41.224Z,94.30
2023-02-09T03:08:09.212Z,94.80
2023-02-09T03:10:38.906Z,95.10
2023-02-09T03:13:15.015Z,95.50
2023-02-09T03:15:51.660Z,96.00
2023-02-09T03:18:32.522Z,96.20
2023-02-09T03:21:07.064Z,96.40
2023-02-09T03:23:40.718Z,96.50
2023-02-09T03:26:14.059Z,96.60
2023-02-09T03:28:46.066Z,96.70
2023-02-09T03:31:14.855Z,97.10
2023-02-09T03:33:44.495Z,97.10
2023-02-09T03:36:16.937Z,97.20
2023-02-09T03:38:44.957Z,97.30
2023-02-09T03:41:13.327Z,97.40
2023-02-09T03:43:58.902Z,97.40
2023-02-09T03:46:27.084Z,97.50
2023-02-09T03:48:56.339Z,97.40
2023-02-09T03:51:24.265Z,97.60
2023-02-09T03:53:52.160Z,97.40
2023-02-09T03:56:20.092Z,97.40
2023-02-09T03:58:47.980Z,97.30
2023-02-09T04:01:15.944Z,97.70
2023-02-09T04:03:44.117Z,97.50
2023-02-09T04:06:13.390Z,97.60
2023-02-09T04:08:43.020Z,97.50
2023-02-09T04:11:11.035Z,96.60
2023-02-09T04:13:38.945Z,96.40
2023-02-09T04:16:07.623Z,95.90
2023-02-09T04:18:36.025Z,95.70
2023-02-09T04:21:03.969Z,95.40
2023-02-09T04:23:33.253Z,95.40
2023-02-09T04:26:01.185Z,95.10
2023-02-09T04:28:29.385Z,95.10
2023-02-09T04:30:58.276Z,95.10
2023-02-09T04:33:26.637Z,95.40
2023-02-09T04:35:57.573Z,95.30
2023-02-09T04:38:25.990Z,95.20
2023-02-09T04:40:56.404Z,94.60
2023-02-09T04:43:24.404Z,94.90
2023-02-09T04:45:52.818Z,94.20
2023-02-09T04:48:22.697Z,94.00
2023-02-09T04:50:50.872Z,93.80
2023-02-09T04:53:20.264Z,94.10
2023-02-09T04:55:49.035Z,93.90
2023-02-09T04:58:38.113Z,94.30
2023-02-09T05:01:06.530Z,94.10
2023-02-09T05:03:34.814Z,93.70
2023-02-09T05:06:04.781Z,94.00
2023-02-09T05:08:33.060Z,93.80
2023-02-09T05:11:01.305Z,93.60
2023-02-09T05:13:31.010Z,93.80
2023-02-09T05:15:59.128Z,93.60
2023-02-09T05:18:28.140Z,93.60
2023-02-09T05:20:56.194Z,93.50
2023-02-09T05:23:24.181Z,93.60
2023-02-09T05:25:52.240Z,93.50
2023-02-09T05:28:20.212Z,93.80
2023-02-09T05:30:53.566Z,93.90
2023-02-09T05:33:21.739Z,94.10
2023-02-09T05:35:51.258Z,94.20
2023-02-09T05:38:19.361Z,94.10
2023-02-09T05:40:47.534Z,94.60
2023-02-09T05:43:15.648Z,94.30
2023-02-09T05:45:44.293Z,94.50
2023-02-09T05:48:13.903Z,94.70
2023-02-09T05:50:41.822Z,95.00
2023-02-09T05:53:09.961Z,94.40
2023-02-09T05:55:37.911Z,93.90
2023-02-09T05:58:05.934Z,94.00
2023-02-09T06:00:34.189Z,94.20
2023-02-09T06:03:02.765Z,94.20
2023-02-09T06:05:32.274Z,94.30
2023-02-09T06:08:00.248Z,94.90
2023-02-09T06:10:28.104Z,94.40
2023-02-09T06:12:56.013Z,94.50
2023-02-09T06:15:23.994Z,94.30
2023-02-09T06:17:52.016Z,94.10
2023-02-09T06:20:20.104Z,93.90
2023-02-09T06:22:49.343Z,94.20
2023-02-09T06:25:17.978Z,93.90
2023-02-09T06:27:45.888Z,94.30
2023-02-09T06:30:14.664Z,94.10
2023-02-09T06:32:42.632Z,94.10
2023-02-09T06:35:10.778Z,94.30
2023-02-09T06:37:38.925Z,94.20
2023-02-09T06:40:09.099Z,94.30
2023-02-09T06:42:44.638Z,93.90
2023-02-09T06:45:13.353Z,94.10
2023-02-09T06:47:42.637Z,94.10
2023-02-09T06:50:11.322Z,94.50
2023-02-09T06:52:39.464Z,94.60
2023-02-09T06:55:09.628Z,95.00
2023-02-09T06:57:37.646Z,95.70
2023-02-09T07:00:07.530Z,94.90
2023-02-09T07:02:35.657Z,95.30
2023-02-09T07:05:03.626Z,95.60
2023-02-09T07:07:31.614Z,95.10
2023-02-09T07:09:59.566Z,95.10
2023-02-09T07:12:28.901Z,94.50
2023-02-09T07:14:56.758Z,94.10
2023-02-09T07:17:24.784Z,94.60
2023-02-09T07:19:52.673Z,93.40
2023-02-09T07:22:20.741Z,93.80
2023-02-09T07:24:48.666Z,94.10
2023-02-09T07:27:16.664Z,93.90
2023-02-09T07:29:46.256Z,93.80
2023-02-09T07:32:14.528Z,93.90
2023-02-09T07:34:42.656Z,92.30
2023-02-09T07:37:10.582Z,92.20
2023-02-09T07:39:38.600Z,91.90
2023-02-09T07:42:06.621Z,91.90
2023-02-09T07:44:34.608Z,91.70
2023-02-09T07:47:03.946Z,92.50
2023-02-09T07:49:32.056Z,91.80
2023-02-09T07:51:59.960Z,91.60
2023-02-09T07:54:27.898Z,92.30
2023-02-09T07:56:56.329Z,91.90
2023-02-09T07:59:24.384Z,92.00
2023-02-09T08:01:52.333Z,92.70
2023-02-09T08:04:22.726Z,93.30
2023-02-09T08:06:51.898Z,91.30
2023-02-09T08:09:19.921Z,92.30
2023-02-09T08:11:51.311Z,92.00
2023-02-09T08:14:22.600Z,90.20
2023-02-09T08:17:13.213Z,90.30
2023-02-09T08:19:42.822Z,89.80
2023-02-09T08:22:11.026Z,89.00
2023-02-09T08:24:39.048Z,90.10
2023-02-09T08:27:06.965Z,90.20
2023-02-09T08:29:35.054Z,89.30
2023-02-09T08:32:03.467Z,90.30
2023-02-09T08:34:31.404Z,89.30
2023-02-09T08:37:00.634Z,86.30
2023-02-09T08:39:28.512Z,89.20
2023-02-09T08:41:56.400Z,89.00
2023-02-09T08:44:24.473Z,86.00
2023-02-09T08:46:52.591Z,86.20
2023-02-09T08:49:20.636Z,86.70
2023-02-09T08:51:53.132Z,87.30
2023-02-09T08:54:22.389Z,85.50
2023-02-09T08:56:50.422Z,84.60
2023-02-09T08:59:20.089Z,86.80
2023-02-09T09:01:48.237Z,85.80
2023-02-09T09:04:16.850Z,85.70
2023-02-09T09:06:44.779Z,86.30
2023-02-09T09:09:12.756Z,85.80
2023-02-09T09:11:42.352Z,86.30
2023-02-09T09:14:10.304Z,85.80
2023-02-09T09:16:38.249Z,84.50
2023-02-09T09:19:06.547Z,85.00
2023-02-09T09:21:34.810Z,85.10
2023-02-09T09:24:02.724Z,84.10
2023-02-09T09:26:30.620Z,84.30
2023-02-09T09:28:59.898Z,86.20
2023-02-09T09:31:28.002Z,83.80
2023-02-09T09:33:56.588Z,82.40
2023-02-09T09:36:24.508Z,82.30
2023-02-09T09:38:52.397Z,81.20
2023-02-09T09:41:24.967Z,82.30
2023-02-09T09:43:54.661Z,81.10
2023-02-09T09:46:33.418Z,79.30
2023-02-09T09:49:01.967Z,80.90
2023-02-09T09:51:37.594Z,81.80
2023-02-09T09:54:08.303Z,83.90
2023-02-09T09:56:36.371Z,82.90
2023-02-09T09:59:04.303Z,82.50
2023-02-09T10:01:34.387Z,82.70
2023-02-09T10:04:07.605Z,84.10
2023-02-09T10:06:35.634Z,84.40
2023-02-09T10:09:06.411Z,85.00
2023-02-09T10:11:41.901Z,83.50
2023-02-09T10:14:10.962Z,85.40
2023-02-09T10:16:40.583Z,84.50
2023-02-09T10:19:22.367Z,85.70
2023-02-09T10:21:50.457Z,83.80
2023-02-09T10:24:24.626Z,85.80
2023-02-09T10:27:08.651Z,85.70
2023-02-09T10:29:36.678Z,86.30
2023-02-09T10:32:09.079Z,86.30
2023-02-09T10:34:45.287Z,86.80
2023-02-09T10:37:27.099Z,87.90
2023-02-09T10:40:07.181Z,86.50
2023-02-09T10:42:37.378Z,85.20
2023-02-09T10:45:10.108Z,83.00
2023-02-09T10:47:39.596Z,82.40
2023-02-09T10:50:18.910Z,82.50
2023-02-09T10:52:58.543Z,83.40
2023-02-09T10:55:33.067Z,82.60
2023-02-09T10:58:22.886Z,84.00
2023-02-09T11:00:54.728Z,83.00
2023-02-09T11:03:26.201Z,85.20
2023-02-09T11:06:03.206Z,84.70
2023-02-09T11:08:42.553Z,85.20
2023-02-09T11:11:25.729Z,86.80
2023-02-09T11:13:53.929Z,86.70
2023-02-09T11:17:01.664Z,86.50
2023-02-09T11:19:59.774Z,87.60
2023-02-09T11:22:48.861Z,85.70
2023-02-09T11:25:22.417Z,86.00
2023-02-09T11:28:04.528Z,84.80
2023-02-09T11:30:55.303Z,84.80
2023-02-09T11:33:33.953Z,84.20
2023-02-09T11:36:15.357Z,81.60
2023-02-09T11:38:51.941Z,83.50
2023-02-09T11:41:46.177Z,82.80
2023-02-09T11:44:21.818Z,82.50
2023-02-09T11:46:54.400Z,83.20
2023-02-09T11:49:26.373Z,83.40
2023-02-09T11:51:57.439Z,82.90
2023-02-09T11:54:33.793Z,81.30
2023-02-09T11:57:06.357Z,80.80
2023-02-09T11:59:38.004Z,81.70
2023-02-09T12:02:20.777Z,80.50
2023-02-09T12:04:54.412Z,81.90
2023-02-09T12:07:33.015Z,82.60
2023-02-09T12:10:15.758Z,81.60
2023-02-09T12:12:49.841Z,80.90
2023-02-09T12:15:20.692Z,82.00
2023-02-09T12:17:52.669Z,81.80
2023-02-09T12:20:24.745Z,82.80
2023-02-09T12:23:04.372Z,82.30
2023-02-09T12:26:01.005Z,82.30
2023-02-09T12:28:40.950Z,81.30
2023-02-09T12:31:12.934Z,80.70
2023-02-09T12:34:01.230Z,81.60
2023-02-09T12:36:32.402Z,81.70
2023-02-09T12:39:05.274Z,82.10
2023-02-09T12:42:13.686Z,81.50
2023-02-09T12:44:55.700Z,82.00
2023-02-09T12:47:51.781Z,81.50
2023-02-09T12:50:36.199Z,79.30
2023-02-09T12:53:32.064Z,79.70
2023-02-09T12:56:02.852Z,79.80
2023-02-09T12:58:53.407Z,79.90
2023-02-09T13:01:21.559Z,78.80
2023-02-09T13:03:56.569Z,80.40
2023-02-09T13:06:36.750Z,79.40
2023-02-09T13:09:10.151Z,81.10
2023-02-09T13:11:49.203Z,80.80
2023-02-09T13:14:19.790Z,81.10
2023-02-09T13:17:12.846Z,81.10
2023-02-09T13:20:00.055Z,81.90
2023-02-09T13:22:54.038Z,80.40
2023-02-09T13:25:29.845Z,80.90
2023-02-09T13:28:07.885Z,80.30
2023-02-09T13:30:37.754Z,80.70
2023-02-09T13:33:22.104Z,81.80
2023-02-09T13:36:23.947Z,81.30
2023-02-09T13:38:53.176Z,81.30
2023-02-09T13:41:36.508Z,79.70
2023-02-09T13:44:04.810Z,79.30
2023-02-09T13:46:35.296Z,79.50
2023-02-09T13:49:14.190Z,80.70
2023-02-09T13:51:42.241Z,80.50
2023-02-09T13:54:19.908Z,80.80
2023-02-09T13:56:48.512Z,80.40
2023-02-09T13:59:17.684Z,79.60
2023-02-09T14:01:47.227Z,79.70
2023-02-09T14:04:18.153Z,80.00
2023-02-09T14:06:51.674Z,78.90
2023-02-09T14:09:24.372Z,78.30
2023-02-09T14:11:55.110Z,79.40
2023-02-09T14:14:26.085Z,78.70
2023-02-09T14:17:25.816Z,79.50
2023-02-09T14:19:54.947Z,79.60
2023-02-09T14:22:29.953Z,78.90
2023-02-09T14:24:57.893Z,79.40
2023-02-09T14:27:28.681Z,79.50
2023-02-09T14:29:57.021Z,78.20
2023-02-09T14:32:34.051Z,79.30
2023-02-09T14:35:17.329Z,79.00
2023-02-09T14:37:45.704Z,78.60
2023-02-09T14:40:22.453Z,78.40
2023-02-09T14:42:57.974Z,78.40
2023-02-09T14:45:36.486Z,78.00
2023-02-09T14:48:20.742Z,77.60
2023-02-09T14:50:49.707Z,78.50
2023-02-09T14:53:18.993Z,79.40
2023-02-09T14:55:48.479Z,79.10
2023-02-09T14:58:24.630Z,79.70
2023-02-09T15:00:54.430Z,78.50
2023-02-09T15:03:23.996Z,78.50
2023-02-09T15:05:58.295Z,78.60
2023-02-09T15:08:29.248Z,78.90
2023-02-09T15:11:00.522Z,79.00
2023-02-09T15:13:30.333Z,78.90
2023-02-09T15:15:58.448Z,78.70
2023-02-09T15:18:28.491Z,78.10
2023-02-09T15:20:56.396Z,77.90
2023-02-09T15:23:24.307Z,78.20
2023-02-09T15:25:52.207Z,77.90
2023-02-09T15:28:27.989Z,78.10
2023-02-09T15:30:56.715Z,77.90
2023-02-09T15:33:28.167Z,78.70
2023-02-09T15:35:58.918Z,78.70
2023-02-09T15:38:28.172Z,79.00
2023-02-09T15:41:13.951Z,78.80
2023-02-09T15:43:59.739Z,79.00
2023-02-09T15:46:45.406Z,79.10
2023-02-09T15:49:14.704Z,78.90
2023-02-09T15:51:42.959Z,78.70
2023-02-09T15:54:15.714Z,78.70
2023-02-09T15:56:43.776Z,79.20
2023-02-09T15:59:18.755Z,78.80
2023-02-09T16:01:47.033Z,78.90
2023-02-09T16:04:16.786Z,79.50
2023-02-09T16:06:49.378Z,79.10
2023-02-09T16:09:19.827Z,79.40
2023-02-09T16:11:48.445Z,79.50
2023-02-09T16:14:20.184Z,80.00
2023-02-09T16:16:48.973Z,80.30
2023-02-09T16:19:18.850Z,80.60
2023-02-09T16:21:49.803Z,80.70
2023-02-09T16:24:23.408Z,81.50
2023-02-09T16:26:51.448Z,81.60
2023-02-09T16:29:19.352Z,81.30
2023-02-09T16:31:47.433Z,81.70
2023-02-09T16:34:15.890Z,82.70
2023-02-09T16:36:47.691Z,82.20
2023-02-09T16:39:19.076Z,82.10
2023-02-09T16:41:53.694Z,82.30
2023-02-09T16:44:23.071Z,83.20
2023-02-09T16:46:53.316Z,84.10
2023-02-09T16:49:31.232Z,84.00
2023-02-09T16:52:04.820Z,84.60
2023-02-09T16:54:39.864Z,84.20
2023-02-09T16:57:07.875Z,85.20
2023-02-09T16:59:35.756Z,85.10
2023-02-09T17:02:04.719Z,84.60
2023-02-09T17:04:32.700Z,84.90
2023-02-09T17:07:01.994Z,84.60
2023-02-09T17:09:29.998Z,84.40
2023-02-09T17:11:57.924Z,84.90
2023-02-09T17:14:26.025Z,85.60
2023-02-09T17:16:54.312Z,86.10
2023-02-09T17:19:23.231Z,84.90
2023-02-09T17:21:51.162Z,84.70
2023-02-09T17:24:20.445Z,86.10
2023-02-09T17:26:48.358Z,85.90
2023-02-09T17:29:20.033Z,85.90
2023-02-09T17:31:53.508Z,86.00
2023-02-09T17:34:26.905Z,86.10
2023-02-09T17:36:54.883Z,86.60
2023-02-09T17:39:24.619Z,86.10
2023-02-09T17:41:52.561Z,86.00
2023-02-09T17:44:35.262Z,86.30
2023-02-09T17:47:13.263Z,85.90
2023-02-09T17:49:41.248Z,85.20
2023-02-09T17:52:16.158Z,85.30
2023-02-09T17:54:45.575Z,85.80
2023-02-09T17:57:14.316Z,86.20
2023-02-09T17:59:42.596Z,87.10
2023-02-09T18:02:16.376Z,86.90
2023-02-09T18:04:44.830Z,87.10
2023-02-09T18:07:14.385Z,86.60
2023-02-09T18:09:42.605Z,87.70
2023-02-09T18:12:19.399Z,87.30
2023-02-09T18:14:47.678Z,87.00
2023-02-09T18:17:16.585Z,86.70
2023-02-09T18:19:44.521Z,87.20
2023-02-09T18:22:14.871Z,86.90
2023-02-09T18:24:42.857Z,87.50
2023-02-09T18:27:15.571Z,87.00
2023-02-09T18:29:43.668Z,86.90
2023-02-09T18:32:16.077Z,86.90
2023-02-09T18:34:44.315Z,87.50
2023-02-09T18:37:14.385Z,87.30
2023-02-09T18:39:46.198Z,86.90
2023-02-09T18:42:16.769Z,87.40
2023-02-09T18:44:44.804Z,87.50
2023-02-09T18:47:12.940Z,87.30
2023-02-09T18:49:40.993Z,87.20
2023-02-09T18:52:10.315Z,88.10
2023-02-09T18:54:38.243Z,88.40
2023-02-09T18:57:06.585Z,88.00
2023-02-09T18:59:36.576Z,87.80
2023-02-09T19:02:04.549Z,88.20
2023-02-09T19:04:32.585Z,88.70
2023-02-09T19:07:01.869Z,88.80
2023-02-09T19:09:29.762Z,88.50
2023-02-09T19:11:57.656Z,88.80
2023-02-09T19:14:40.653Z,88.40
2023-02-09T19:17:13.152Z,88.70
2023-02-09T19:19:41.462Z,89.00
2023-02-09T19:22:10.028Z,89.30
2023-02-09T19:24:37.969Z,88.80
2023-02-09T19:27:09.161Z,88.50
2023-02-09T19:29:39.000Z,88.20
2023-02-09T19:32:06.938Z,88.70
2023-02-09T19:34:39.924Z,88.70
2023-02-09T19:37:09.140Z,89.50
2023-02-09T19:39:39.770Z,89.30
2023-02-09T19:42:08.667Z,89.70
2023-02-09T19:44:37.167Z,90.10
2023-02-09T19:47:05.101Z,90.30
2023-02-09T19:49:34.375Z,90.30
2023-02-09T19:52:03.961Z,90.00
2023-02-09T19:54:32.305Z,89.30
2023-02-09T19:57:05.704Z,89.40
2023-02-09T19:59:33.861Z,89.10
2023-02-09T20:02:01.854Z,89.60
2023-02-09T20:04:29.797Z,90.00
2023-02-09T20:06:57.799Z,89.10
2023-02-09T20:09:27.134Z,88.90
2023-02-09T20:14:31.356Z,88.40
2023-02-09T20:17:00.943Z,88.30
2023-02-09T20:19:29.558Z,88.40
2023-02-09T20:21:57.568Z,88.80
2023-02-09T20:24:26.899Z,88.50
2023-02-09T20:26:54.826Z,88.50
2023-02-09T20:29:23.082Z,88.40
2023-02-09T20:31:51.066Z,88.60
2023-02-09T20:34:19.072Z,88.60
2023-02-09T20:36:48.430Z,88.50
2023-02-09T20:39:18.192Z,89.00
2023-02-09T20:42:02.828Z,89.50
2023-02-09T20:44:48.125Z,89.60
2023-02-09T20:47:16.120Z,90.30
2023-02-09T20:49:44.124Z,90.10
2023-02-09T20:52:12.224Z,90.20
2023-02-09T20:54:40.649Z,90.40
2023-02-09T20:57:10.122Z,90.50
2023-02-09T20:59:38.073Z,90.10
2023-02-09T21:02:06.156Z,90.20
2023-02-09T21:04:34.084Z,89.90
2023-02-09T21:07:04.073Z,90.10
2023-02-09T21:09:33.185Z,90.30
2023-02-09T21:12:01.255Z,90.30
2023-02-09T21:14:41.571Z,90.20
2023-02-09T21:17:10.489Z,90.10
2023-02-09T21:19:38.447Z,90.70
2023-02-09T21:22:06.515Z,91.10
2023-02-09T21:24:34.617Z,90.70
2023-02-09T21:27:02.518Z,90.30
2023-02-09T21:29:33.852Z,90.20
2023-02-09T21:32:03.261Z,89.90
2023-02-09T21:34:33.253Z,90.20
2023-02-09T21:37:01.224Z,90.00
2023-02-09T21:39:29.252Z,89.50
2023-02-09T21:42:14.705Z,90.10
2023-02-09T21:44:43.978Z,90.30
2023-02-09T21:47:11.988Z,90.40
2023-02-09T21:49:39.879Z,90.40
2023-02-09T21:52:07.815Z,90.10
2023-02-09T21:54:35.789Z,90.00
2023-02-09T21:57:05.360Z,89.70
2023-02-09T21:59:33.348Z,89.80
2023-02-09T22:02:04.315Z,89.90
2023-02-09T22:04:32.388Z,89.90
2023-02-09T22:07:00.448Z,90.00
2023-02-09T22:09:28.845Z,89.60
2023-02-09T22:11:56.740Z,90.10
2023-02-09T22:14:24.772Z,90.10
2023-02-09T22:16:52.755Z,89.60
2023-02-09T22:19:22.162Z,90.00
2023-02-09T22:21:50.205Z,90.10
2023-02-09T22:24:19.298Z,90.10
2023-02-09T22:26:47.890Z,90.60
2023-02-09T22:29:16.928Z,90.70
2023-02-09T22:31:45.559Z,90.90
2023-02-09T22:34:13.939Z,90.80
2023-02-09T22:36:43.227Z,90.40
2023-02-09T22:39:11.184Z,90.40
2023-02-09T22:41:39.675Z,90.50
2023-02-09T22:44:09.326Z,90.70
2023-02-09T22:46:39.325Z,90.80
2023-02-09T22:49:08.806Z,90.10
2023-02-09T22:51:37.725Z,90.50
2023-02-09T22:54:07.380Z,90.20
2023-02-09T22:56:35.384Z,90.20
2023-02-09T22:59:03.575Z,89.70
2023-02-09T23:01:31.901Z,90.10
2023-02-09T23:04:00.352Z,89.60
2023-02-09T23:06:30.150Z,89.60
2023-02-09T23:09:00.399Z,89.50
2023-02-09T23:11:30.996Z,89.70
2023-02-09T23:14:09.930Z,90.20
2023-02-09T23:16:39.747Z,90.50
2023-02-09T23:19:09.645Z,90.30
2023-02-09T23:21:40.389Z,90.10
2023-02-09T23:24:09.227Z,90.10
2023-02-09T23:26:39.203Z,90.20
2023-02-09T23:29:09.065Z,90.30
2023-02-09T23:31:37.785Z,90.50
2023-02-09T23:34:06.033Z,90.30
2023-02-09T23:36:35.493Z,90.40
2023-02-09T23:39:05.766Z,90.40
2023-02-09T23:41:34.098Z,90.10
2023-02-09T23:44:04.212Z,90.10
2023-02-09T23:46:32.758Z,90.20
2023-02-09T23:49:00.691Z,90.50
2023-02-09T23:51:30.738Z,90.30
2023-02-09T23:54:00.180Z,90.10
2023-02-09T23:56:31.695Z,90.00
2023-02-09T23:58:59.619Z,90.50
